sensor_id;sensor_type;location;lat;lon;timestamp;temperature;humidity
1297;DHT22;641;48.492;9.184;2023-03-26T00:00:40;8.40;99.90
1297;DHT22;641;48.492;9.184;2023-03-26T00:03:11;8.20;99.90
1297;DHT22;641;48.492;9.184;2023-03-26T00:05:38;7.90;99.90
1297;DHT22;641;48.492;9.184;2023-03-26T00:08:03;7.50;99.90
1297;DHT22;641;48.492;9.184;2023-03-26T00:10:29;7.70;99.90
1297;DHT22;641;48.492;9.184;2023-03-26T00:12:55;7.60;99.90
1297;DHT22;641;48.492;9.184;2023-03-26T00:15:20;7.80;99.90
1297;DHT22;641;48.492;9.184;2023-03-26T00:17:46;7.90;99.90
1297;DHT22;641;48.492;9.184;2023-03-26T00:20:12;7.90;99.90
1297;DHT22;641;48.492;9.184;2023-03-26T00:22:39;7.90;99.90
1297;DHT22;641;48.492;9.184;2023-03-26T00:25:06;8.00;99.90
1297;DHT22;641;48.492;9.184;2023-03-26T00:27:32;8.30;99.90
1297;DHT22;641;48.492;9.184;2023-03-26T00:29:59;8.40;99.90
1297;DHT22;641;48.492;9.184;2023-03-26T00:32:26;8.20;99.90
1297;DHT22;641;48.492;9.184;2023-03-26T00:34:56;8.40;99.90
1297;DHT22;641;48.492;9.184;2023-03-26T00:37:23;8.00;99.90
1297;DHT22;641;48.492;9.184;2023-03-26T00:39:53;7.90;99.90
1297;DHT22;641;48.492;9.184;2023-03-26T00:42:24;7.70;99.90
1297;DHT22;641;48.492;9.184;2023-03-26T00:44:50;7.50;99.90
1297;DHT22;641;48.492;9.184;2023-03-26T00:47:20;7.60;99.90
1297;DHT22;641;48.492;9.184;2023-03-26T00:49:45;7.90;99.90
1297;DHT22;641;48.492;9.184;2023-03-26T00:52:13;7.80;99.90
1297;DHT22;641;48.492;9.184;2023-03-26T00:54:39;7.80;99.90
1297;DHT22;641;48.492;9.184;2023-03-26T00:57:05;7.80;99.90
1297;DHT22;641;48.492;9.184;2023-03-26T00:59:31;7.90;99.90
1297;DHT22;641;48.492;9.184;2023-03-26T01:02:00;7.70;99.90
1297;DHT22;641;48.492;9.184;2023-03-26T01:04:31;7.80;99.90
1297;DHT22;641;48.492;9.184;2023-03-26T01:07:02;7.70;99.90
1297;DHT22;641;48.492;9.184;2023-03-26T01:09:34;7.70;99.90
1297;DHT22;641;48.492;9.184;2023-03-26T01:12:04;7.80;99.90
1297;DHT22;641;48.492;9.184;2023-03-26T01:14:31;7.80;99.90
1297;DHT22;641;48.492;9.184;2023-03-26T01:16:59;7.80;99.90
1297;DHT22;641;48.492;9.184;2023-03-26T01:19:47;8.00;99.90
1297;DHT22;641;48.492;9.184;2023-03-26T01:22:17;7.90;99.90
1297;DHT22;641;48.492;9.184;2023-03-26T01:24:43;7.90;99.90
1297;DHT22;641;48.492;9.184;2023-03-26T01:30:04;8.20;99.90
1297;DHT22;641;48.492;9.184;2023-03-26T01:37:52;8.10;99.90
1297;DHT22;641;48.492;9.184;2023-03-26T01:42:58;8.00;99.90
1297;DHT22;641;48.492;9.184;2023-03-26T01:45:29;8.00;99.90
1297;DHT22;641;48.492;9.184;2023-03-26T01:47:56;8.10;99.90
1297;DHT22;641;48.492;9.184;2023-03-26T01:50:21;8.10;99.90
1297;DHT22;641;48.492;9.184;2023-03-26T01:52:47;7.90;99.90
1297;DHT22;641;48.492;9.184;2023-03-26T01:55:13;7.80;99.90
1297;DHT22;641;48.492;9.184;2023-03-26T01:57:54;7.80;99.90
1297;DHT22;641;48.492;9.184;2023-03-26T02:00:33;7.90;99.90
1297;DHT22;641;48.492;9.184;2023-03-26T02:06:37;7.70;99.90
1297;DHT22;641;48.492;9.184;2023-03-26T02:09:04;7.70;99.90
1297;DHT22;641;48.492;9.184;2023-03-26T02:11:31;7.80;99.90
1297;DHT22;641;48.492;9.184;2023-03-26T02:13:57;7.70;99.90
1297;DHT22;641;48.492;9.184;2023-03-26T02:16:23;7.80;99.90
1297;DHT22;641;48.492;9.184;2023-03-26T02:18:49;7.80;99.90
1297;DHT22;641;48.492;9.184;2023-03-26T02:21:21;7.80;99.90
1297;DHT22;641;48.492;9.184;2023-03-26T02:23:49;7.90;99.90
1297;DHT22;641;48.492;9.184;2023-03-26T02:26:22;7.80;99.90
1297;DHT22;641;48.492;9.184;2023-03-26T02:28:49;7.60;99.90
1297;DHT22;641;48.492;9.184;2023-03-26T02:31:14;7.50;99.90
1297;DHT22;641;48.492;9.184;2023-03-26T02:33:41;7.50;99.90
1297;DHT22;641;48.492;9.184;2023-03-26T02:36:09;7.40;99.90
1297;DHT22;641;48.492;9.184;2023-03-26T02:38:38;7.40;99.90
1297;DHT22;641;48.492;9.184;2023-03-26T02:41:04;7.60;99.90
1297;DHT22;641;48.492;9.184;2023-03-26T02:43:30;7.60;99.90
1297;DHT22;641;48.492;9.184;2023-03-26T02:45:56;7.60;99.90
1297;DHT22;641;48.492;9.184;2023-03-26T02:48:22;7.60;99.90
1297;DHT22;641;48.492;9.184;2023-03-26T02:50:48;7.40;99.90
1297;DHT22;641;48.492;9.184;2023-03-26T02:53:19;7.60;99.90
1297;DHT22;641;48.492;9.184;2023-03-26T02:55:46;7.60;99.90
1297;DHT22;641;48.492;9.184;2023-03-26T02:58:11;7.60;99.90
1297;DHT22;641;48.492;9.184;2023-03-26T03:00:43;7.70;99.90
1297;DHT22;641;48.492;9.184;2023-03-26T03:03:09;7.60;99.90
1297;DHT22;641;48.492;9.184;2023-03-26T03:05:34;7.80;99.90
1297;DHT22;641;48.492;9.184;2023-03-26T03:08:03;7.70;99.90
1297;DHT22;641;48.492;9.184;2023-03-26T03:10:30;7.70;99.90
1297;DHT22;641;48.492;9.184;2023-03-26T03:12:57;7.60;99.90
1297;DHT22;641;48.492;9.184;2023-03-26T03:15:23;7.50;99.90
1297;DHT22;641;48.492;9.184;2023-03-26T03:17:48;7.50;99.90
1297;DHT22;641;48.492;9.184;2023-03-26T03:20:14;7.50;99.90
1297;DHT22;641;48.492;9.184;2023-03-26T03:22:41;7.70;99.90
1297;DHT22;641;48.492;9.184;2023-03-26T03:25:07;7.60;99.90
1297;DHT22;641;48.492;9.184;2023-03-26T03:27:39;7.60;99.90
1297;DHT22;641;48.492;9.184;2023-03-26T03:30:06;7.70;99.90
1297;DHT22;641;48.492;9.184;2023-03-26T03:32:32;7.80;99.90
1297;DHT22;641;48.492;9.184;2023-03-26T03:34:57;7.90;99.90
1297;DHT22;641;48.492;9.184;2023-03-26T03:37:23;7.80;99.90
1297;DHT22;641;48.492;9.184;2023-03-26T03:39:49;7.90;99.90
1297;DHT22;641;48.492;9.184;2023-03-26T03:42:14;8.10;99.90
1297;DHT22;641;48.492;9.184;2023-03-26T03:44:40;8.10;99.90
1297;DHT22;641;48.492;9.184;2023-03-26T03:47:05;8.10;99.90
1297;DHT22;641;48.492;9.184;2023-03-26T03:49:31;8.40;99.90
1297;DHT22;641;48.492;9.184;2023-03-26T03:51:57;8.20;99.90
1297;DHT22;641;48.492;9.184;2023-03-26T03:54:22;8.30;99.90
1297;DHT22;641;48.492;9.184;2023-03-26T03:56:48;8.30;99.90
1297;DHT22;641;48.492;9.184;2023-03-26T03:59:14;8.30;99.90
1297;DHT22;641;48.492;9.184;2023-03-26T04:01:40;8.30;99.90
1297;DHT22;641;48.492;9.184;2023-03-26T04:04:08;8.40;99.90
1297;DHT22;641;48.492;9.184;2023-03-26T04:06:33;8.40;99.90
1297;DHT22;641;48.492;9.184;2023-03-26T04:08:59;8.40;99.90
1297;DHT22;641;48.492;9.184;2023-03-26T04:11:24;8.50;99.90
1297;DHT22;641;48.492;9.184;2023-03-26T04:13:50;8.50;99.90
1297;DHT22;641;48.492;9.184;2023-03-26T04:16:16;8.70;99.90
1297;DHT22;641;48.492;9.184;2023-03-26T04:18:43;8.70;99.90
1297;DHT22;641;48.492;9.184;2023-03-26T04:21:10;8.80;99.90
1297;DHT22;641;48.492;9.184;2023-03-26T04:23:37;8.80;99.90
1297;DHT22;641;48.492;9.184;2023-03-26T04:26:05;8.90;99.90
1297;DHT22;641;48.492;9.184;2023-03-26T04:28:40;8.80;99.90
1297;DHT22;641;48.492;9.184;2023-03-26T04:31:09;8.80;99.90
1297;DHT22;641;48.492;9.184;2023-03-26T04:33:36;8.90;99.90
1297;DHT22;641;48.492;9.184;2023-03-26T04:36:04;8.90;99.90
1297;DHT22;641;48.492;9.184;2023-03-26T04:38:33;8.90;99.90
1297;DHT22;641;48.492;9.184;2023-03-26T04:41:02;8.80;99.90
1297;DHT22;641;48.492;9.184;2023-03-26T04:43:27;8.80;99.90
1297;DHT22;641;48.492;9.184;2023-03-26T04:45:55;8.90;99.90
1297;DHT22;641;48.492;9.184;2023-03-26T04:48:21;8.90;99.90
1297;DHT22;641;48.492;9.184;2023-03-26T04:50:47;9.10;99.90
1297;DHT22;641;48.492;9.184;2023-03-26T04:53:17;9.10;99.90
1297;DHT22;641;48.492;9.184;2023-03-26T04:55:58;8.90;99.90
1297;DHT22;641;48.492;9.184;2023-03-26T04:58:25;9.00;99.90
1297;DHT22;641;48.492;9.184;2023-03-26T05:01:01;8.90;99.90
1297;DHT22;641;48.492;9.184;2023-03-26T05:03:28;9.00;99.90
1297;DHT22;641;48.492;9.184;2023-03-26T05:05:59;9.00;99.90
1297;DHT22;641;48.492;9.184;2023-03-26T05:08:26;9.00;99.90
1297;DHT22;641;48.492;9.184;2023-03-26T05:10:54;9.20;99.90
1297;DHT22;641;48.492;9.184;2023-03-26T05:13:20;9.10;99.90
1297;DHT22;641;48.492;9.184;2023-03-26T05:15:46;9.30;99.90
1297;DHT22;641;48.492;9.184;2023-03-26T05:18:11;9.30;99.90
1297;DHT22;641;48.492;9.184;2023-03-26T05:20:37;9.20;99.90
1297;DHT22;641;48.492;9.184;2023-03-26T05:23:03;9.20;99.90
1297;DHT22;641;48.492;9.184;2023-03-26T05:25:28;9.20;99.90
1297;DHT22;641;48.492;9.184;2023-03-26T05:27:54;9.20;99.90
1297;DHT22;641;48.492;9.184;2023-03-26T05:30:20;9.10;99.90
1297;DHT22;641;48.492;9.184;2023-03-26T05:32:47;9.10;99.90
1297;DHT22;641;48.492;9.184;2023-03-26T05:35:14;9.30;99.90
1297;DHT22;641;48.492;9.184;2023-03-26T05:37:44;9.40;99.90
1297;DHT22;641;48.492;9.184;2023-03-26T05:40:10;8.30;99.90
1297;DHT22;641;48.492;9.184;2023-03-26T05:42:37;8.50;99.90
1297;DHT22;641;48.492;9.184;2023-03-26T05:45:04;8.70;99.90
1297;DHT22;641;48.492;9.184;2023-03-26T05:47:30;8.90;99.90
1297;DHT22;641;48.492;9.184;2023-03-26T05:49:56;9.00;99.90
1297;DHT22;641;48.492;9.184;2023-03-26T05:52:22;9.00;99.90
1297;DHT22;641;48.492;9.184;2023-03-26T05:54:47;9.10;99.90
1297;DHT22;641;48.492;9.184;2023-03-26T05:57:13;9.20;99.90
1297;DHT22;641;48.492;9.184;2023-03-26T05:59:38;9.20;99.90
1297;DHT22;641;48.492;9.184;2023-03-26T06:02:04;9.20;99.90
1297;DHT22;641;48.492;9.184;2023-03-26T06:04:30;9.20;99.90
1297;DHT22;641;48.492;9.184;2023-03-26T06:06:56;9.10;99.90
1297;DHT22;641;48.492;9.184;2023-03-26T06:09:22;8.90;99.90
1297;DHT22;641;48.492;9.184;2023-03-26T06:11:48;9.10;99.90
1297;DHT22;641;48.492;9.184;2023-03-26T06:14:13;9.00;99.90
1297;DHT22;641;48.492;9.184;2023-03-26T06:16:39;8.90;99.90
1297;DHT22;641;48.492;9.184;2023-03-26T06:19:05;9.00;99.90
1297;DHT22;641;48.492;9.184;2023-03-26T06:21:30;9.10;99.90
1297;DHT22;641;48.492;9.184;2023-03-26T06:23:56;9.00;99.90
1297;DHT22;641;48.492;9.184;2023-03-26T06:26:21;9.00;99.90
1297;DHT22;641;48.492;9.184;2023-03-26T06:28:47;9.00;99.90
1297;DHT22;641;48.492;9.184;2023-03-26T06:31:13;9.00;99.90
1297;DHT22;641;48.492;9.184;2023-03-26T06:33:38;9.10;99.90
1297;DHT22;641;48.492;9.184;2023-03-26T06:36:04;9.20;99.90
1297;DHT22;641;48.492;9.184;2023-03-26T06:38:30;9.20;99.90
1297;DHT22;641;48.492;9.184;2023-03-26T06:41:04;9.20;99.90
1297;DHT22;641;48.492;9.184;2023-03-26T06:43:30;9.10;99.90
1297;DHT22;641;48.492;9.184;2023-03-26T06:46:01;9.00;99.90
1297;DHT22;641;48.492;9.184;2023-03-26T06:48:27;9.20;99.90
1297;DHT22;641;48.492;9.184;2023-03-26T06:50:53;9.10;99.90
1297;DHT22;641;48.492;9.184;2023-03-26T06:53:19;9.10;99.90
1297;DHT22;641;48.492;9.184;2023-03-26T06:55:44;9.00;99.90
1297;DHT22;641;48.492;9.184;2023-03-26T06:58:11;9.00;99.90
1297;DHT22;641;48.492;9.184;2023-03-26T07:00:37;9.00;99.90
1297;DHT22;641;48.492;9.184;2023-03-26T07:03:04;8.90;99.90
1297;DHT22;641;48.492;9.184;2023-03-26T07:05:29;8.90;99.90
1297;DHT22;641;48.492;9.184;2023-03-26T07:07:56;9.00;99.90
1297;DHT22;641;48.492;9.184;2023-03-26T07:10:21;9.00;99.90
1297;DHT22;641;48.492;9.184;2023-03-26T07:12:47;9.00;99.90
1297;DHT22;641;48.492;9.184;2023-03-26T07:15:13;9.00;99.90
1297;DHT22;641;48.492;9.184;2023-03-26T07:17:38;9.00;99.90
1297;DHT22;641;48.492;9.184;2023-03-26T07:20:06;9.20;99.90
1297;DHT22;641;48.492;9.184;2023-03-26T07:22:33;9.00;99.90
1297;DHT22;641;48.492;9.184;2023-03-26T07:25:00;9.10;99.90
1297;DHT22;641;48.492;9.184;2023-03-26T07:27:58;9.10;99.90
1297;DHT22;641;48.492;9.184;2023-03-26T07:30:45;9.20;99.90
1297;DHT22;641;48.492;9.184;2023-03-26T07:33:22;9.10;99.90
1297;DHT22;641;48.492;9.184;2023-03-26T07:41:22;8.70;99.90
1297;DHT22;641;48.492;9.184;2023-03-26T07:46:20;9.00;99.90
1297;DHT22;641;48.492;9.184;2023-03-26T07:48:50;9.00;99.90
1297;DHT22;641;48.492;9.184;2023-03-26T07:51:18;9.10;99.90
1297;DHT22;641;48.492;9.184;2023-03-26T07:53:44;9.10;99.90
1297;DHT22;641;48.492;9.184;2023-03-26T07:56:16;9.20;99.90
1297;DHT22;641;48.492;9.184;2023-03-26T07:59:02;9.20;99.90
1297;DHT22;641;48.492;9.184;2023-03-26T08:10:43;9.50;99.90
1297;DHT22;641;48.492;9.184;2023-03-26T08:13:36;9.50;99.90
1297;DHT22;641;48.492;9.184;2023-03-26T08:16:08;9.70;99.90
1297;DHT22;641;48.492;9.184;2023-03-26T08:18:45;9.60;99.90
1297;DHT22;641;48.492;9.184;2023-03-26T08:21:30;9.50;99.90
1297;DHT22;641;48.492;9.184;2023-03-26T08:24:40;9.10;99.90
1297;DHT22;641;48.492;9.184;2023-03-26T08:27:05;9.20;99.90
1297;DHT22;641;48.492;9.184;2023-03-26T08:29:43;9.40;99.90
1297;DHT22;641;48.492;9.184;2023-03-26T08:32:16;9.50;99.90
1297;DHT22;641;48.492;9.184;2023-03-26T08:34:42;9.50;99.90
1297;DHT22;641;48.492;9.184;2023-03-26T08:37:08;9.40;99.90
1297;DHT22;641;48.492;9.184;2023-03-26T08:39:34;9.40;99.90
1297;DHT22;641;48.492;9.184;2023-03-26T08:44:50;9.40;99.90
1297;DHT22;641;48.492;9.184;2023-03-26T08:53:13;9.70;99.90
1297;DHT22;641;48.492;9.184;2023-03-26T09:07:30;9.50;99.90
1297;DHT22;641;48.492;9.184;2023-03-26T09:10:39;9.50;99.90
1297;DHT22;641;48.492;9.184;2023-03-26T09:24:26;10.30;99.90
1297;DHT22;641;48.492;9.184;2023-03-26T09:36:06;11.00;99.90
1297;DHT22;641;48.492;9.184;2023-03-26T10:13:11;9.20;99.90
1297;DHT22;641;48.492;9.184;2023-03-26T10:18:48;9.10;99.90
1297;DHT22;641;48.492;9.184;2023-03-26T10:30:06;8.90;99.90
1297;DHT22;641;48.492;9.184;2023-03-26T10:41:40;9.80;99.90
1297;DHT22;641;48.492;9.184;2023-03-26T10:44:34;10.20;99.90
1297;DHT22;641;48.492;9.184;2023-03-26T10:52:47;10.50;99.90
1297;DHT22;641;48.492;9.184;2023-03-26T10:55:17;10.70;99.90
1297;DHT22;641;48.492;9.184;2023-03-26T10:57:51;11.20;99.90
1297;DHT22;641;48.492;9.184;2023-03-26T11:00:20;11.40;99.90
1297;DHT22;641;48.492;9.184;2023-03-26T11:09:08;10.70;99.90
1297;DHT22;641;48.492;9.184;2023-03-26T11:11:44;10.20;99.90
1297;DHT22;641;48.492;9.184;2023-03-26T11:17:16;9.90;99.90
1297;DHT22;641;48.492;9.184;2023-03-26T11:19:52;10.00;99.90
1297;DHT22;641;48.492;9.184;2023-03-26T11:28:01;10.50;99.90
1297;DHT22;641;48.492;9.184;2023-03-26T11:33:04;10.80;99.90
1297;DHT22;641;48.492;9.184;2023-03-26T11:35:37;11.00;99.90
1297;DHT22;641;48.492;9.184;2023-03-26T11:38:13;11.00;99.90
1297;DHT22;641;48.492;9.184;2023-03-26T11:40:42;11.20;99.90
1297;DHT22;641;48.492;9.184;2023-03-26T11:43:12;10.80;99.90
1297;DHT22;641;48.492;9.184;2023-03-26T11:45:44;11.10;99.90
1297;DHT22;641;48.492;9.184;2023-03-26T11:48:36;11.10;99.90
1297;DHT22;641;48.492;9.184;2023-03-26T11:51:07;10.90;99.90
1297;DHT22;641;48.492;9.184;2023-03-26T11:53:34;11.00;99.90
1297;DHT22;641;48.492;9.184;2023-03-26T11:59:02;11.20;99.90
1297;DHT22;641;48.492;9.184;2023-03-26T12:04:33;11.50;99.90
1297;DHT22;641;48.492;9.184;2023-03-26T12:07:29;11.60;99.90
1297;DHT22;641;48.492;9.184;2023-03-26T12:10:00;11.90;99.90
1297;DHT22;641;48.492;9.184;2023-03-26T12:12:38;12.00;99.90
1297;DHT22;641;48.492;9.184;2023-03-26T12:15:15;12.10;99.90
1297;DHT22;641;48.492;9.184;2023-03-26T12:17:41;12.10;99.90
1297;DHT22;641;48.492;9.184;2023-03-26T12:22:50;12.10;99.90
1297;DHT22;641;48.492;9.184;2023-03-26T12:30:26;12.60;99.90
1297;DHT22;641;48.492;9.184;2023-03-26T12:32:56;12.70;99.90
1297;DHT22;641;48.492;9.184;2023-03-26T12:35:26;12.90;99.90
1297;DHT22;641;48.492;9.184;2023-03-26T12:37:53;13.00;99.90
1297;DHT22;641;48.492;9.184;2023-03-26T12:40:30;13.20;99.90
1297;DHT22;641;48.492;9.184;2023-03-26T12:42:58;12.90;99.90
1297;DHT22;641;48.492;9.184;2023-03-26T12:45:30;13.30;99.90
1297;DHT22;641;48.492;9.184;2023-03-26T12:47:58;13.40;99.90
1297;DHT22;641;48.492;9.184;2023-03-26T12:50:31;13.20;99.90
1297;DHT22;641;48.492;9.184;2023-03-26T12:53:47;13.30;99.90
1297;DHT22;641;48.492;9.184;2023-03-26T12:56:25;13.40;99.90
1297;DHT22;641;48.492;9.184;2023-03-26T12:59:00;13.50;99.90
1297;DHT22;641;48.492;9.184;2023-03-26T13:04:36;13.60;99.90
1297;DHT22;641;48.492;9.184;2023-03-26T13:07:13;13.60;99.00
1297;DHT22;641;48.492;9.184;2023-03-26T13:15:46;13.80;99.60
1297;DHT22;641;48.492;9.184;2023-03-26T13:19:10;13.60;99.00
1297;DHT22;641;48.492;9.184;2023-03-26T13:21:29;13.40;98.60
1297;DHT22;641;48.492;9.184;2023-03-26T13:26:55;14.10;98.60
1297;DHT22;641;48.492;9.184;2023-03-26T13:32:20;14.20;97.10
1297;DHT22;641;48.492;9.184;2023-03-26T13:43:51;13.50;95.00
1297;DHT22;641;48.492;9.184;2023-03-26T13:56:41;12.60;99.90
1297;DHT22;641;48.492;9.184;2023-03-26T13:59:13;12.40;99.90
1297;DHT22;641;48.492;9.184;2023-03-26T14:01:46;12.00;99.90
1297;DHT22;641;48.492;9.184;2023-03-26T14:04:29;12.30;99.90
1297;DHT22;641;48.492;9.184;2023-03-26T14:09:43;13.40;99.90
1297;DHT22;641;48.492;9.184;2023-03-26T14:15:04;12.60;99.90
1297;DHT22;641;48.492;9.184;2023-03-26T14:21:19;13.20;99.90
1297;DHT22;641;48.492;9.184;2023-03-26T14:29:29;13.70;99.90
1297;DHT22;641;48.492;9.184;2023-03-26T14:40:46;13.50;97.60
1297;DHT22;641;48.492;9.184;2023-03-26T14:46:49;13.30;97.20
1297;DHT22;641;48.492;9.184;2023-03-26T14:49:33;12.90;97.00
1297;DHT22;641;48.492;9.184;2023-03-26T14:52:08;12.40;97.20
1297;DHT22;641;48.492;9.184;2023-03-26T14:54:40;12.40;96.70
1297;DHT22;641;48.492;9.184;2023-03-26T14:57:16;12.30;97.90
1297;DHT22;641;48.492;9.184;2023-03-26T15:02:28;12.30;97.10
1297;DHT22;641;48.492;9.184;2023-03-26T15:16:54;11.30;99.90
1297;DHT22;641;48.492;9.184;2023-03-26T15:22:23;11.40;99.90
1297;DHT22;641;48.492;9.184;2023-03-26T15:33:27;10.50;99.90
1297;DHT22;641;48.492;9.184;2023-03-26T15:41:52;8.50;99.90
1297;DHT22;641;48.492;9.184;2023-03-26T15:52:34;8.00;99.90
1297;DHT22;641;48.492;9.184;2023-03-26T15:55:17;8.00;99.90
1297;DHT22;641;48.492;9.184;2023-03-26T15:58:07;8.20;99.90
1297;DHT22;641;48.492;9.184;2023-03-26T16:00:46;8.00;99.90
1297;DHT22;641;48.492;9.184;2023-03-26T16:03:44;8.10;99.90
1297;DHT22;641;48.492;9.184;2023-03-26T16:06:28;8.40;99.90
1297;DHT22;641;48.492;9.184;2023-03-26T16:11:47;8.70;99.90
1297;DHT22;641;48.492;9.184;2023-03-26T16:14:22;8.90;99.90
1297;DHT22;641;48.492;9.184;2023-03-26T16:16:57;8.60;99.90
1297;DHT22;641;48.492;9.184;2023-03-26T16:22:59;8.50;99.90
1297;DHT22;641;48.492;9.184;2023-03-26T16:30:37;8.30;99.90
1297;DHT22;641;48.492;9.184;2023-03-26T16:33:15;8.60;99.90
1297;DHT22;641;48.492;9.184;2023-03-26T16:36:02;8.90;99.90
1297;DHT22;641;48.492;9.184;2023-03-26T16:41:26;8.70;99.90
1297;DHT22;641;48.492;9.184;2023-03-26T16:52:21;8.50;99.90
1297;DHT22;641;48.492;9.184;2023-03-26T16:57:28;8.20;99.90
1297;DHT22;641;48.492;9.184;2023-03-26T17:11:38;8.40;99.90
1297;DHT22;641;48.492;9.184;2023-03-26T17:17:49;8.20;99.90
1297;DHT22;641;48.492;9.184;2023-03-26T17:20:31;8.30;99.90
1297;DHT22;641;48.492;9.184;2023-03-26T17:29:08;8.40;99.90
1297;DHT22;641;48.492;9.184;2023-03-26T17:32:06;8.30;99.90
1297;DHT22;641;48.492;9.184;2023-03-26T17:42:28;8.10;99.90
1297;DHT22;641;48.492;9.184;2023-03-26T17:50:29;7.80;99.90
1297;DHT22;641;48.492;9.184;2023-03-26T17:53:18;7.90;99.90
1297;DHT22;641;48.492;9.184;2023-03-26T17:55:45;7.80;99.90
1297;DHT22;641;48.492;9.184;2023-03-26T17:58:34;7.80;99.90
1297;DHT22;641;48.492;9.184;2023-03-26T18:03:46;7.90;99.90
1297;DHT22;641;48.492;9.184;2023-03-26T18:07:05;7.80;99.90
1297;DHT22;641;48.492;9.184;2023-03-26T18:09:24;7.90;99.90
1297;DHT22;641;48.492;9.184;2023-03-26T18:12:00;7.90;99.90
1297;DHT22;641;48.492;9.184;2023-03-26T18:14:51;7.90;99.90
1297;DHT22;641;48.492;9.184;2023-03-26T18:17:20;7.80;99.90
1297;DHT22;641;48.492;9.184;2023-03-26T18:19:53;7.80;99.90
1297;DHT22;641;48.492;9.184;2023-03-26T18:22:24;7.70;99.90
1297;DHT22;641;48.492;9.184;2023-03-26T18:24:53;7.70;99.90
1297;DHT22;641;48.492;9.184;2023-03-26T18:27:21;7.60;99.90
1297;DHT22;641;48.492;9.184;2023-03-26T18:32:24;7.80;99.90
1297;DHT22;641;48.492;9.184;2023-03-26T18:34:57;7.80;99.90
1297;DHT22;641;48.492;9.184;2023-03-26T18:37:32;7.80;99.90
1297;DHT22;641;48.492;9.184;2023-03-26T18:42:28;7.80;99.90
1297;DHT22;641;48.492;9.184;2023-03-26T18:44:56;7.90;99.90
1297;DHT22;641;48.492;9.184;2023-03-26T18:47:23;7.90;99.90
1297;DHT22;641;48.492;9.184;2023-03-26T18:49:52;7.70;99.90
1297;DHT22;641;48.492;9.184;2023-03-26T18:52:19;7.50;99.90
1297;DHT22;641;48.492;9.184;2023-03-26T18:54:50;7.50;99.90
1297;DHT22;641;48.492;9.184;2023-03-26T18:57:25;7.50;99.90
1297;DHT22;641;48.492;9.184;2023-03-26T18:59:53;7.50;99.90
1297;DHT22;641;48.492;9.184;2023-03-26T19:02:20;7.60;99.90
1297;DHT22;641;48.492;9.184;2023-03-26T19:04:48;7.20;99.90
1297;DHT22;641;48.492;9.184;2023-03-26T19:07:17;7.30;99.90
1297;DHT22;641;48.492;9.184;2023-03-26T19:09:47;7.60;99.90
1297;DHT22;641;48.492;9.184;2023-03-26T19:12:28;7.40;99.90
1297;DHT22;641;48.492;9.184;2023-03-26T19:15:01;7.40;99.90
1297;DHT22;641;48.492;9.184;2023-03-26T19:17:31;7.20;99.90
1297;DHT22;641;48.492;9.184;2023-03-26T19:19:59;7.30;99.90
1297;DHT22;641;48.492;9.184;2023-03-26T19:22:25;7.40;99.90
1297;DHT22;641;48.492;9.184;2023-03-26T19:24:58;7.50;99.90
1297;DHT22;641;48.492;9.184;2023-03-26T19:27:25;7.50;99.90
1297;DHT22;641;48.492;9.184;2023-03-26T19:29:51;8.80;99.90
1297;DHT22;641;48.492;9.184;2023-03-26T19:32:28;7.70;99.90
1297;DHT22;641;48.492;9.184;2023-03-26T19:34:58;7.70;99.90
1297;DHT22;641;48.492;9.184;2023-03-26T19:37:25;7.70;99.90
1297;DHT22;641;48.492;9.184;2023-03-26T19:40:20;7.70;99.90
1297;DHT22;641;48.492;9.184;2023-03-26T19:42:44;7.70;99.90
1297;DHT22;641;48.492;9.184;2023-03-26T19:45:18;7.80;99.90
1297;DHT22;641;48.492;9.184;2023-03-26T19:47:45;7.60;99.90
1297;DHT22;641;48.492;9.184;2023-03-26T19:50:22;7.60;99.90
1297;DHT22;641;48.492;9.184;2023-03-26T19:55:36;7.50;99.90
1297;DHT22;641;48.492;9.184;2023-03-26T19:58:01;7.50;99.90
1297;DHT22;641;48.492;9.184;2023-03-26T20:00:27;7.40;99.90
1297;DHT22;641;48.492;9.184;2023-03-26T20:02:53;7.50;99.90
1297;DHT22;641;48.492;9.184;2023-03-26T20:05:24;7.60;99.90
1297;DHT22;641;48.492;9.184;2023-03-26T20:07:51;7.60;99.90
1297;DHT22;641;48.492;9.184;2023-03-26T20:10:17;7.60;99.90
1297;DHT22;641;48.492;9.184;2023-03-26T20:12:43;7.50;99.90
1297;DHT22;641;48.492;9.184;2023-03-26T20:15:19;7.40;99.90
1297;DHT22;641;48.492;9.184;2023-03-26T20:17:45;7.20;99.90
1297;DHT22;641;48.492;9.184;2023-03-26T20:20:14;7.30;99.90
1297;DHT22;641;48.492;9.184;2023-03-26T20:22:40;7.20;99.90
1297;DHT22;641;48.492;9.184;2023-03-26T20:25:32;7.20;99.90
1297;DHT22;641;48.492;9.184;2023-03-26T20:27:58;7.30;99.90
1297;DHT22;641;48.492;9.184;2023-03-26T20:30:24;7.40;99.90
1297;DHT22;641;48.492;9.184;2023-03-26T20:32:50;7.40;99.90
1297;DHT22;641;48.492;9.184;2023-03-26T20:35:21;7.20;99.90
1297;DHT22;641;48.492;9.184;2023-03-26T20:37:47;7.10;99.90
1297;DHT22;641;48.492;9.184;2023-03-26T20:40:13;7.20;99.90
1297;DHT22;641;48.492;9.184;2023-03-26T20:42:41;7.10;99.90
1297;DHT22;641;48.492;9.184;2023-03-26T20:45:20;7.10;99.90
1297;DHT22;641;48.492;9.184;2023-03-26T20:47:48;7.10;99.90
1297;DHT22;641;48.492;9.184;2023-03-26T20:50:16;7.10;99.90
1297;DHT22;641;48.492;9.184;2023-03-26T20:52:42;7.10;99.90
1297;DHT22;641;48.492;9.184;2023-03-26T20:55:13;7.20;99.90
1297;DHT22;641;48.492;9.184;2023-03-26T20:57:40;7.80;99.90
1297;DHT22;641;48.492;9.184;2023-03-26T21:00:08;7.30;99.90
1297;DHT22;641;48.492;9.184;2023-03-26T21:02:44;6.80;99.90
1297;DHT22;641;48.492;9.184;2023-03-26T21:05:11;7.30;99.90
1297;DHT22;641;48.492;9.184;2023-03-26T21:07:43;8.00;99.90
1297;DHT22;641;48.492;9.184;2023-03-26T21:10:11;6.90;99.90
1297;DHT22;641;48.492;9.184;2023-03-26T21:12:49;6.80;99.90
1297;DHT22;641;48.492;9.184;2023-03-26T21:15:17;6.80;99.90
1297;DHT22;641;48.492;9.184;2023-03-26T21:17:43;6.70;99.90
1297;DHT22;641;48.492;9.184;2023-03-26T21:20:09;6.70;99.90
1297;DHT22;641;48.492;9.184;2023-03-26T21:28:48;6.90;99.90
1297;DHT22;641;48.492;9.184;2023-03-26T21:31:23;6.90;99.90
1297;DHT22;641;48.492;9.184;2023-03-26T21:33:49;6.90;99.90
1297;DHT22;641;48.492;9.184;2023-03-26T21:36:16;7.00;99.90
1297;DHT22;641;48.492;9.184;2023-03-26T21:38:43;6.80;99.90
1297;DHT22;641;48.492;9.184;2023-03-26T21:43:49;6.90;99.90
1297;DHT22;641;48.492;9.184;2023-03-26T21:46:16;7.00;99.90
1297;DHT22;641;48.492;9.184;2023-03-26T21:48:42;6.90;99.90
1297;DHT22;641;48.492;9.184;2023-03-26T21:51:10;6.80;99.90
1297;DHT22;641;48.492;9.184;2023-03-26T21:53:40;6.80;99.90
1297;DHT22;641;48.492;9.184;2023-03-26T21:56:40;6.80;99.90
1297;DHT22;641;48.492;9.184;2023-03-26T22:01:54;7.20;99.90
1297;DHT22;641;48.492;9.184;2023-03-26T22:07:08;8.40;99.90
1297;DHT22;641;48.492;9.184;2023-03-26T22:09:35;8.40;99.90
1297;DHT22;641;48.492;9.184;2023-03-26T22:12:01;7.30;99.90
1297;DHT22;641;48.492;9.184;2023-03-26T22:14:27;7.30;99.90
1297;DHT22;641;48.492;9.184;2023-03-26T22:16:53;7.40;99.90
1297;DHT22;641;48.492;9.184;2023-03-26T22:19:19;8.00;99.90
1297;DHT22;641;48.492;9.184;2023-03-26T22:21:44;7.20;99.90
1297;DHT22;641;48.492;9.184;2023-03-26T22:24:10;8.10;99.90
1297;DHT22;641;48.492;9.184;2023-03-26T22:26:36;7.40;99.90
1297;DHT22;641;48.492;9.184;2023-03-26T22:29:02;8.00;99.90
1297;DHT22;641;48.492;9.184;2023-03-26T22:31:28;7.40;99.90
1297;DHT22;641;48.492;9.184;2023-03-26T22:33:54;7.60;99.90
1297;DHT22;641;48.492;9.184;2023-03-26T22:36:20;7.50;99.90
1297;DHT22;641;48.492;9.184;2023-03-26T22:38:46;7.50;99.90
1297;DHT22;641;48.492;9.184;2023-03-26T22:41:12;7.50;99.90
1297;DHT22;641;48.492;9.184;2023-03-26T22:43:38;7.50;99.90